Time;durP1;ratioP1;P1;durP2;ratioP2;P2;SDS_P1;SDS_P2;PMS_P1;PMS_P2;Temp;Humidity;BMP_temperature;BMP_pressure;BME280_temperature;BME280_humidity;BME280_pressure;Samples;Min_cycle;Max_cycle;Signal;HPM_P1;HPM_P2
2023/09/17 00:00:11;;;;;;;20.70;13.00;;;;;;;16.69;89.70;100628.09;213648;1289;141194;-86
2023/09/17 00:05:11;;;;;;;22.10;12.70;;;;;;;16.67;90.63;100624.86;214498;1291;138296;-88
2023/09/17 00:10:12;;;;;;;21.00;13.10;;;;;;;16.68;91.23;100622.80;214115;1290;140218;-87
2023/09/17 00:15:12;;;;;;;19.10;12.30;;;;;;;16.67;91.39;100624.23;214146;1291;139422;-86
2023/09/17 00:20:13;;;;;;;17.30;11.40;;;;;;;16.67;91.71;100623.75;213775;1290;141002;-87
2023/09/17 00:25:13;;;;;;;19.70;12.10;;;;;;;16.67;92.17;100618.59;213940;1292;138348;-87
2023/09/17 00:30:15;;;;;;;17.90;11.50;;;;;;;16.66;92.46;100611.62;213521;1290;140223;-87
2023/09/17 00:35:15;;;;;;;20.00;12.70;;;;;;;16.64;92.63;100610.28;213961;1292;138252;-87
2023/09/17 00:40:16;;;;;;;21.30;13.80;;;;;;;16.62;93.08;100602.77;213389;1291;140523;-87
2023/09/17 00:45:16;;;;;;;21.00;13.20;;;;;;;16.63;93.72;100597.73;213975;1293;138426;-86
2023/09/17 00:50:17;;;;;;;21.90;12.40;;;;;;;16.63;93.55;100601.17;213519;1290;140593;-87
2023/09/17 00:55:17;;;;;;;20.80;12.80;;;;;;;16.60;93.91;100597.39;216819;1290;137806;-86
2023/09/17 01:00:21;;;;;;;21.50;13.20;;;;;;;16.55;94.00;100596.40;213754;1293;140748;-87
2023/09/17 01:05:21;;;;;;;21.80;13.40;;;;;;;16.48;93.93;100591.70;214292;1290;138781;-87
2023/09/17 01:10:22;;;;;;;19.70;12.70;;;;;;;16.43;93.65;100591.84;214705;1290;140949;-87
2023/09/17 01:15:23;;;;;;;22.00;13.40;;;;;;;16.37;93.52;100588.06;214341;1293;138526;-88
2023/09/17 01:20:31;;;;;;;19.70;13.10;;;;;;;16.31;94.13;100588.84;213538;1293;141029;-86
2023/09/17 01:25:42;;;;;;;21.30;11.90;;;;;;;16.24;94.24;100585.80;213766;1290;138439;-87
2023/09/17 01:30:44;;;;;;;21.90;13.50;;;;;;;16.19;94.50;100583.16;213676;1290;141729;-87
2023/09/17 01:35:57;;;;;;;23.00;14.30;;;;;;;16.13;94.59;100582.98;214146;1290;138102;-87
2023/09/17 01:41:00;;;;;;;21.90;13.70;;;;;;;16.06;95.49;100584.64;213344;1293;141978;-87
2023/09/17 01:46:00;;;;;;;25.50;15.20;;;;;;;15.99;96.07;100577.94;213992;1289;138758;-87
2023/09/17 01:51:02;;;;;;;22.90;15.50;;;;;;;15.93;96.11;100576.02;213777;1290;141569;-87
2023/09/17 01:56:04;;;;;;;23.20;14.90;;;;;;;15.88;96.84;100575.18;214732;1291;139387;-87
2023/09/17 02:01:04;;;;;;;23.30;15.10;;;;;;;15.82;96.70;100569.05;213647;1290;142039;-87
2023/09/17 02:06:05;;;;;;;20.90;14.00;;;;;;;15.76;97.40;100568.45;214344;1290;95353;-87
2023/09/17 02:11:06;;;;;;;22.10;14.60;;;;;;;15.72;97.58;100570.71;213559;1290;141086;-85
2023/09/17 02:16:07;;;;;;;23.60;15.70;;;;;;;15.68;98.15;100566.94;216004;1289;138721;-87
2023/09/17 02:21:08;;;;;;;26.80;16.00;;;;;;;15.62;98.63;100562.62;214623;1291;232954;-87
2023/09/17 02:26:08;;;;;;;24.70;15.10;;;;;;;15.58;98.90;100563.04;214245;1293;138493;-87
2023/09/17 02:31:09;;;;;;;23.30;14.90;;;;;;;15.55;99.25;100561.16;213846;1290;141598;-88
2023/09/17 02:36:09;;;;;;;24.70;15.40;;;;;;;15.50;99.38;100556.27;214331;1290;95287;-87
2023/09/17 02:41:09;;;;;;;26.30;15.30;;;;;;;15.46;99.73;100551.55;213685;1292;141054;-87
2023/09/17 02:46:11;;;;;;;24.20;15.70;;;;;;;15.42;99.78;100545.64;214244;1293;138500;-87
2023/09/17 02:51:12;;;;;;;29.60;17.00;;;;;;;15.37;99.99;100544.17;213793;1291;141341;-87
2023/09/17 02:56:13;;;;;;;25.40;16.30;;;;;;;15.33;100.00;100547.35;214253;1291;138468;-87
2023/09/17 03:01:15;;;;;;;29.90;16.90;;;;;;;15.31;100.00;100552.98;213913;1290;141683;-87
2023/09/17 03:06:16;;;;;;;23.70;14.80;;;;;;;15.27;100.00;100553.88;214759;1290;95303;-86
2023/09/17 03:11:17;;;;;;;24.00;16.60;;;;;;;15.22;100.00;100558.10;213708;1291;142686;-86
2023/09/17 03:16:18;;;;;;;26.90;16.30;;;;;;;15.18;100.00;100565.88;214171;1291;138506;-87
2023/09/17 03:21:19;;;;;;;27.90;17.60;;;;;;;15.15;100.00;100566.28;213562;1289;141757;-87
2023/09/17 03:26:22;;;;;;;24.60;15.60;;;;;;;15.12;100.00;100571.21;215638;1290;139298;-87
2023/09/17 03:31:23;;;;;;;28.40;16.70;;;;;;;15.10;100.00;100568.79;214200;1290;141860;-86
2023/09/17 03:36:24;;;;;;;29.00;17.90;;;;;;;15.05;100.00;100571.65;214935;1291;95507;-86
2023/09/17 03:41:25;;;;;;;25.80;17.40;;;;;;;15.01;100.00;100567.63;214163;1289;140428;-86
2023/09/17 03:46:25;;;;;;;25.20;17.70;;;;;;;14.97;100.00;100565.75;214578;1290;138706;-86
2023/09/17 03:51:29;;;;;;;26.80;18.10;;;;;;;14.94;100.00;100562.98;213881;1291;141581;-86
2023/09/17 03:56:29;;;;;;;27.20;17.80;;;;;;;14.90;100.00;100560.16;214243;1293;138779;-86
2023/09/17 04:01:32;;;;;;;30.60;18.50;;;;;;;14.89;100.00;100558.19;214143;1290;140906;-86
2023/09/17 04:06:33;;;;;;;27.00;17.70;;;;;;;14.87;100.00;100561.45;214818;1290;95222;-87
2023/09/17 04:11:34;;;;;;;29.50;18.20;;;;;;;14.85;100.00;100560.11;214099;1293;141917;-86
2023/09/17 04:16:34;;;;;;;27.10;17.20;;;;;;;14.83;100.00;100560.98;214496;1291;138559;-86
2023/09/17 04:21:35;;;;;;;30.80;19.90;;;;;;;14.80;100.00;100569.21;213698;1288;141221;-88
2023/09/17 04:26:36;;;;;;;29.40;19.80;;;;;;;14.77;100.00;100572.24;214326;1289;138726;-88
2023/09/17 04:31:37;;;;;;;30.40;19.10;;;;;;;14.75;100.00;100572.02;213497;1291;141301;-87
2023/09/17 04:36:38;;;;;;;33.10;18.70;;;;;;;14.72;100.00;100568.94;214063;1295;95191;-88
2023/09/17 04:41:38;;;;;;;28.60;18.60;;;;;;;14.70;100.00;100568.95;213307;1291;140415;-87
2023/09/17 04:46:40;;;;;;;28.90;19.40;;;;;;;14.67;100.00;100567.70;214087;1292;139260;-87
2023/09/17 04:51:41;;;;;;;27.00;18.80;;;;;;;14.66;100.00;100574.27;214426;1291;140505;-87
2023/09/17 04:56:41;;;;;;;33.20;20.10;;;;;;;14.66;100.00;100574.02;214478;1290;138955;-88
2023/09/17 05:01:41;;;;;;;32.50;21.10;;;;;;;14.66;100.00;100579.73;213511;1290;141477;-87
2023/09/17 05:06:44;;;;;;;33.60;21.60;;;;;;;14.66;100.00;100586.37;214123;1291;96155;-87
2023/09/17 05:11:45;;;;;;;32.90;21.00;;;;;;;14.68;100.00;100587.23;213493;1291;141547;-86
2023/09/17 05:16:45;;;;;;;32.30;21.70;;;;;;;14.72;100.00;100591.48;213960;1296;138601;-87
2023/09/17 05:21:45;;;;;;;30.30;20.00;;;;;;;14.75;100.00;100596.71;213355;1291;140517;-87
2023/09/17 05:26:46;;;;;;;29.70;19.50;;;;;;;14.80;100.00;100601.14;214007;1290;138737;-86
2023/09/17 05:31:46;;;;;;;30.20;21.00;;;;;;;14.85;100.00;100599.93;213961;1294;142698;-86
2023/09/17 05:36:47;;;;;;;35.40;21.60;;;;;;;14.91;100.00;100600.46;214250;1291;96192;-86
2023/09/17 05:41:47;;;;;;;32.90;21.80;;;;;;;14.98;100.00;100604.54;214043;1295;140440;-87
2023/09/17 05:46:47;;;;;;;34.90;23.40;;;;;;;15.07;100.00;100604.76;213879;1290;139415;-86
2023/09/17 05:51:48;;;;;;;32.50;21.80;;;;;;;15.14;100.00;100607.95;213413;1295;141310;-87
2023/09/17 05:56:48;;;;;;;35.70;21.80;;;;;;;15.25;100.00;100604.27;213894;1292;138896;-89
2023/09/17 06:01:50;;;;;;;34.20;23.00;;;;;;;15.37;100.00;100608.67;213299;1291;140961;-87
2023/09/17 06:06:50;;;;;;;35.90;23.20;;;;;;;15.49;100.00;100611.05;213819;1291;139436;-86
2023/09/17 06:11:51;;;;;;;32.40;20.60;;;;;;;15.62;100.00;100614.95;213481;1294;141652;-86
2023/09/17 06:16:51;;;;;;;33.20;22.30;;;;;;;15.77;100.00;100614.68;213991;1292;138994;-87
2023/09/17 06:21:52;;;;;;;30.40;21.00;;;;;;;15.94;100.00;100618.92;213548;1291;142556;-87
2023/09/17 06:26:53;;;;;;;32.10;21.10;;;;;;;16.10;100.00;100625.45;214105;1290;138665;-87
2023/09/17 06:31:53;;;;;;;29.20;20.80;;;;;;;16.26;100.00;100629.29;213713;1289;142663;-87
2023/09/17 06:36:54;;;;;;;30.90;20.40;;;;;;;16.40;100.00;100627.50;215023;1290;138649;-88
2023/09/17 06:41:54;;;;;;;35.70;22.10;;;;;;;16.61;100.00;100625.02;214453;1291;140923;-88
2023/09/17 06:46:54;;;;;;;31.60;19.00;;;;;;;16.84;100.00;100618.01;214643;1289;138665;-88
2023/09/17 06:51:56;;;;;;;28.80;19.20;;;;;;;17.01;100.00;100617.48;213996;1291;141715;-88
2023/09/17 06:56:56;;;;;;;28.00;19.20;;;;;;;17.14;100.00;100623.04;214517;1294;138646;-88
2023/09/17 07:01:57;;;;;;;29.40;18.30;;;;;;;17.28;100.00;100623.98;213821;1290;140432;-88
2023/09/17 07:07:00;;;;;;;26.20;18.20;;;;;;;17.43;100.00;100627.94;214413;1289;139140;-88
2023/09/17 07:12:01;;;;;;;26.90;18.30;;;;;;;17.53;100.00;100636.63;213951;1291;140772;-87
2023/09/17 07:17:01;;;;;;;24.60;16.30;;;;;;;17.66;100.00;100634.77;215737;1291;139349;-86
2023/09/17 07:22:01;;;;;;;25.20;16.90;;;;;;;17.81;100.00;100630.41;217058;1291;141104;-87
2023/09/17 07:27:03;;;;;;;23.60;16.30;;;;;;;18.03;100.00;100634.06;217983;1291;138348;-85
2023/09/17 07:32:04;;;;;;;21.20;14.70;;;;;;;18.23;100.00;100636.50;216976;1291;140907;-85
2023/09/17 07:37:05;;;;;;;23.10;13.00;;;;;;;18.42;100.00;100636.12;217618;1291;139368;-86
2023/09/17 07:42:06;;;;;;;20.40;12.00;;;;;;;18.59;100.00;100637.18;217108;1290;141570;-86
2023/09/17 07:47:08;;;;;;;21.80;11.90;;;;;;;18.80;100.00;100638.30;217485;1290;139535;-87
2023/09/17 07:52:09;;;;;;;18.80;10.30;;;;;;;19.02;100.00;100637.23;216899;1291;141776;-86
2023/09/17 07:57:12;;;;;;;15.60;9.60;;;;;;;19.26;100.00;100635.63;217463;1292;138961;-86
2023/09/17 08:02:13;;;;;;;16.60;10.40;;;;;;;19.49;99.60;100634.26;217084;1292;141838;-86
2023/09/17 08:07:13;;;;;;;15.10;10.00;;;;;;;19.77;98.53;100633.06;217878;1289;138727;-85
2023/09/17 08:12:13;;;;;;;14.20;8.70;;;;;;;20.05;97.89;100634.96;217384;1289;140863;-87
2023/09/17 08:17:14;;;;;;;17.50;10.00;;;;;;;20.32;97.25;100629.44;217817;1290;138479;-85
2023/09/17 08:22:15;;;;;;;13.60;8.80;;;;;;;20.63;95.69;100632.86;217148;1289;141931;-87
2023/09/17 08:27:18;;;;;;;16.30;8.70;;;;;;;20.95;93.90;100629.04;217648;1289;139303;-87
2023/09/17 08:32:19;;;;;;;14.10;8.90;;;;;;;21.32;93.16;100628.86;217039;1290;140597;-86
2023/09/17 08:37:19;;;;;;;10.80;7.40;;;;;;;21.70;91.99;100629.47;217621;1289;138970;-86
2023/09/17 08:42:21;;;;;;;13.50;8.20;;;;;;;22.10;90.68;100628.60;217301;1290;142309;-86
2023/09/17 08:47:22;;;;;;;11.10;7.30;;;;;;;22.53;89.80;100627.77;218108;1291;138236;-86
2023/09/17 08:52:26;;;;;;;12.50;8.20;;;;;;;23.05;88.66;100628.73;217129;1291;140467;-86
2023/09/17 08:57:28;;;;;;;11.50;8.20;;;;;;;23.71;86.41;100630.62;217627;1291;139742;-87
2023/09/17 09:02:32;;;;;;;15.80;8.30;;;;;;;24.37;84.24;100634.43;217135;1292;140947;-87
2023/09/17 09:07:34;;;;;;;11.60;7.20;;;;;;;25.13;82.58;100637.54;217798;1293;137757;-86
2023/09/17 09:12:37;;;;;;;12.20;6.90;;;;;;;25.87;79.44;100626.52;217389;1291;140075;-86
2023/09/17 09:17:40;;;;;;;11.50;6.30;;;;;;;26.64;76.43;100625.30;217681;1291;138629;-87
2023/09/17 09:22:43;;;;;;;11.30;6.50;;;;;;;27.39;74.17;100628.00;217142;1291;140762;-86
2023/09/17 09:27:44;;;;;;;11.10;6.40;;;;;;;28.14;72.31;100622.32;217417;1293;138322;-87
2023/09/17 09:32:44;;;;;;;12.90;5.90;;;;;;;28.68;68.68;100627.82;217028;1291;141407;-85
2023/09/17 09:37:45;;;;;;;10.20;6.00;;;;;;;29.21;66.34;100629.79;217903;1290;136991;-87
2023/09/17 09:42:46;;;;;;;9.50;5.40;;;;;;;29.75;64.13;100628.31;217454;1292;138721;-88
2023/09/17 09:47:49;;;;;;;10.10;4.90;;;;;;;30.03;61.84;100626.94;217680;1293;138489;-88
2023/09/17 09:52:50;;;;;;;9.70;5.30;;;;;;;30.37;60.49;100624.79;216991;1290;140051;-87
2023/09/17 09:57:52;;;;;;;10.70;5.90;;;;;;;30.78;58.86;100616.48;217509;1290;138516;-88
2023/09/17 10:02:56;;;;;;;10.20;6.00;;;;;;;31.18;58.22;100611.74;216810;1290;140199;-86
2023/09/17 10:07:57;;;;;;;11.30;5.90;;;;;;;31.64;55.61;100608.66;217617;1289;138730;-87
2023/09/17 10:13:00;;;;;;;9.70;5.70;;;;;;;32.05;55.04;100609.36;217566;1290;140440;-86
2023/09/17 10:18:01;;;;;;;12.20;5.00;;;;;;;32.47;53.53;100604.61;217722;1292;95192;-86
2023/09/17 10:23:03;;;;;;;10.10;5.30;;;;;;;32.69;52.14;100601.53;216929;1294;140038;-87
2023/09/17 10:28:05;;;;;;;10.40;5.00;;;;;;;32.89;50.35;100601.39;217101;1290;137948;-87
2023/09/17 10:33:07;;;;;;;7.90;5.40;;;;;;;32.90;49.81;100602.45;214919;1292;139669;-88
2023/09/17 10:38:09;;;;;;;7.20;4.30;;;;;;;32.80;49.44;100599.69;216024;1293;138351;-86
2023/09/17 10:43:11;;;;;;;9.70;4.80;;;;;;;33.02;49.27;100600.19;215026;1290;139040;-87
2023/09/17 10:48:14;;;;;;;10.30;5.60;;;;;;;33.19;48.64;100598.78;215421;1292;96376;-88
2023/09/17 10:53:14;;;;;;;11.00;5.20;;;;;;;33.06;47.30;100598.05;215341;1292;139377;-88
2023/09/17 10:58:27;;;;;;;11.00;4.80;;;;;;;32.92;48.30;100592.05;216170;1292;137869;-89
2023/09/17 11:03:31;;;;;;;6.50;4.30;;;;;;;32.94;47.50;100588.93;212831;1295;2400756;-87
2023/09/17 11:08:31;;;;;;;8.90;4.20;;;;;;;32.83;47.32;100590.19;214751;1291;138669;-87
2023/09/17 11:13:32;;;;;;;8.20;4.40;;;;;;;32.66;46.21;100587.25;214749;1291;141094;-88
2023/09/17 11:18:59;;;;;;;9.80;4.50;;;;;;;32.23;46.59;100588.64;215232;1289;96349;-87
2023/09/17 11:24:05;;;;;;;7.30;4.00;;;;;;;31.98;46.80;100591.47;215511;1291;139611;-86
2023/09/17 11:29:07;;;;;;;7.80;4.30;;;;;;;31.63;47.10;100589.10;215250;1290;138660;-88
2023/09/17 11:34:09;;;;;;;8.10;4.00;;;;;;;31.05;48.19;100586.33;214944;1289;138326;-87
2023/09/17 11:39:15;;;;;;;7.80;3.90;;;;;;;30.80;49.32;100590.71;214955;1292;140443;-86
2023/09/17 11:44:16;;;;;;;9.10;4.20;;;;;;;30.90;50.38;100594.98;214857;1294;137946;-85
2023/09/17 11:49:18;;;;;;;7.30;4.10;;;;;;;30.92;49.73;100593.79;215140;1289;139846;-86
2023/09/17 11:54:23;;;;;;;6.70;4.00;;;;;;;30.86;49.90;100593.46;215411;1291;96621;-86
2023/09/17 11:59:24;;;;;;;7.60;4.00;;;;;;;30.91;49.62;100593.79;214490;1295;139684;-87
2023/09/17 12:04:27;;;;;;;7.50;3.90;;;;;;;30.96;49.59;100591.90;214950;1290;137878;-87
2023/09/17 12:14:39;;;;;;;6.30;3.40;;;;;;;30.50;49.75;100593.77;215084;1290;137804;-86
2023/09/17 12:19:40;;;;;;;7.10;3.60;;;;;;;30.53;49.33;100592.58;214801;1290;140797;-86
2023/09/17 12:25:02;;;;;;;5.60;3.60;;;;;;;30.45;49.37;100593.08;215589;1293;96701;-88
2023/09/17 12:30:05;;;;;;;8.60;3.60;;;;;;;30.49;49.09;100596.45;215332;1291;138960;-87
2023/09/17 12:35:06;;;;;;;6.80;3.50;;;;;;;30.55;49.03;100593.59;214585;1293;137527;-88
2023/09/17 12:40:08;;;;;;;7.40;3.90;;;;;;;30.61;48.74;100587.21;214976;1289;140348;-88
2023/09/17 12:45:25;;;;;;;;;;;;;;;;;;;;;
2023/09/17 12:50:29;;;;;;;13.90;4.20;;;;;;;30.35;49.30;100581.56;214621;1290;140014;-87
2023/09/17 12:55:30;;;;;;;9.50;3.90;;;;;;;30.27;49.88;100581.23;215294;1289;136990;-87
2023/09/17 13:00:30;;;;;;;9.00;4.30;;;;;;;30.21;50.06;100578.49;215142;1291;139122;-87
2023/09/17 13:05:31;;;;;;;7.60;3.90;;;;;;;30.07;50.46;100579.89;215247;1290;137556;-88
2023/09/17 13:10:32;;;;;;;7.80;3.50;;;;;;;30.03;50.15;100582.39;214627;1290;140414;-89
2023/09/17 13:15:32;;;;;;;8.60;4.10;;;;;;;29.71;50.33;100578.96;215214;1293;137401;-89
2023/09/17 13:20:33;;;;;;;7.80;4.10;;;;;;;29.59;50.72;100581.03;214702;1291;141140;-88
2023/09/17 13:25:41;;;;;;;6.90;3.90;;;;;;;29.50;51.56;100581.88;215408;1291;137727;-88
2023/09/17 13:30:43;;;;;;;8.30;4.20;;;;;;;29.67;51.42;100577.90;214819;1290;139303;-89
2023/09/17 13:35:51;;;;;;;9.30;3.90;;;;;;;29.69;50.13;100573.44;215324;1290;137630;-88
2023/09/17 13:40:52;;;;;;;8.90;3.90;;;;;;;29.51;48.97;100576.36;214635;1293;140144;-87
2023/09/17 13:45:58;;;;;;;9.10;4.00;;;;;;;29.44;48.41;100575.20;215686;1292;137902;-88
2023/09/17 13:50:58;;;;;;;7.30;3.60;;;;;;;29.30;49.15;100577.92;215157;1291;140949;-89
2023/09/17 13:55:59;;;;;;;9.20;4.10;;;;;;;29.30;49.97;100578.03;215766;1289;137828;-88
2023/09/17 14:00:59;;;;;;;5.70;3.50;;;;;;;29.25;49.56;100574.27;215606;1292;141521;-89
2023/09/17 14:06:00;;;;;;;6.10;3.10;;;;;;;29.10;49.79;100574.33;216575;1291;96593;-88
2023/09/17 14:11:02;;;;;;;8.40;3.80;;;;;;;28.93;50.51;100580.73;215963;1291;141100;-88
2023/09/17 14:16:03;;;;;;;8.20;3.60;;;;;;;28.92;51.13;100576.17;215923;1290;138171;-87
2023/09/17 14:21:03;;;;;;;7.30;3.80;;;;;;;28.94;51.91;100571.51;214469;1290;138394;-89
2023/09/17 14:26:03;;;;;;;5.60;3.60;;;;;;;28.89;51.43;100569.03;214859;1289;138220;-87
2023/09/17 14:31:04;;;;;;;7.30;3.60;;;;;;;28.78;51.40;100568.45;214492;1291;139937;-87
2023/09/17 14:36:04;;;;;;;6.10;3.60;;;;;;;28.60;50.77;100564.95;215091;1288;96552;-87
2023/09/17 14:41:05;;;;;;;7.10;3.60;;;;;;;28.43;51.16;100562.92;214456;1288;139161;-88
2023/09/17 14:46:05;;;;;;;9.60;3.50;;;;;;;28.22;51.63;100569.58;214898;1290;137773;-88
2023/09/17 14:51:06;;;;;;;7.90;3.70;;;;;;;28.03;51.98;100569.41;215048;1288;140188;-87
2023/09/17 14:56:06;;;;;;;7.90;3.90;;;;;;;27.87;52.19;100573.30;214586;1290;137901;-87
2023/09/17 15:01:07;;;;;;;7.90;3.90;;;;;;;27.71;52.60;100576.46;214099;1291;140919;-88
2023/09/17 15:06:07;;;;;;;9.20;3.70;;;;;;;27.61;52.98;100567.31;215009;1289;96586;-87
2023/09/17 15:11:08;;;;;;;7.80;4.40;;;;;;;27.51;53.22;100564.98;214328;1290;139249;-88
2023/09/17 15:16:08;;;;;;;6.90;3.40;;;;;;;27.46;53.20;100568.15;214968;1291;138025;-87
2023/09/17 15:21:09;;;;;;;8.90;3.80;;;;;;;27.35;54.07;100562.46;214310;1293;138793;-88
2023/09/17 15:26:09;;;;;;;6.20;3.70;;;;;;;27.28;54.20;100563.15;214697;1290;137695;-88
2023/09/17 15:31:09;;;;;;;8.00;3.60;;;;;;;27.29;53.67;100562.05;214364;1290;138754;-87
2023/09/17 15:36:10;;;;;;;10.60;3.50;;;;;;;27.25;54.50;100565.66;214877;1290;96660;-86
2023/09/17 15:41:11;;;;;;;7.00;3.10;;;;;;;27.14;55.09;100566.31;214156;1291;140423;-87
2023/09/17 15:46:11;;;;;;;7.10;3.30;;;;;;;27.07;56.12;100564.49;215063;1290;137624;-87
2023/09/17 15:51:11;;;;;;;7.00;3.50;;;;;;;26.92;55.26;100560.58;213944;1290;139699;-87
2023/09/17 15:56:12;;;;;;;10.70;3.60;;;;;;;26.87;53.83;100561.30;214879;1290;137601;-87
2023/09/17 16:01:13;;;;;;;6.70;3.20;;;;;;;26.78;54.80;100558.66;214128;1289;140436;-87
2023/09/17 16:06:16;;;;;;;9.10;3.40;;;;;;;26.68;56.72;100557.55;214738;1290;96699;-87
2023/09/17 16:11:16;;;;;;;6.20;3.40;;;;;;;26.49;57.19;100552.67;214156;1291;141110;-87
2023/09/17 16:16:17;;;;;;;5.70;3.40;;;;;;;26.29;57.39;100552.20;214585;1289;137831;-87
2023/09/17 16:21:17;;;;;;;7.80;3.40;;;;;;;26.17;57.57;100561.85;213990;1291;140366;-88
2023/09/17 16:26:17;;;;;;;7.00;3.50;;;;;;;26.09;58.42;100555.91;214740;1290;137995;-87
2023/09/17 16:31:18;;;;;;;8.40;3.70;;;;;;;25.90;59.78;100556.20;214726;1291;139070;-87
2023/09/17 16:36:18;;;;;;;8.10;3.70;;;;;;;25.64;60.71;100557.88;214847;1289;96543;-86
2023/09/17 16:41:19;;;;;;;7.20;3.80;;;;;;;25.45;61.43;100561.20;213979;1291;140636;-87
2023/09/17 16:46:20;;;;;;;6.80;3.50;;;;;;;25.20;62.58;100557.13;214736;1290;137613;-88
2023/09/17 16:51:20;;;;;;;7.50;4.10;;;;;;;24.95;63.95;100559.05;214217;1289;139639;-87
2023/09/17 16:56:21;;;;;;;8.40;4.30;;;;;;;24.67;64.87;100562.54;214764;1290;137811;-87
2023/09/17 17:01:21;;;;;;;8.80;4.80;;;;;;;24.41;65.99;100560.29;214316;1291;141106;-87
2023/09/17 17:06:22;;;;;;;10.60;6.50;;;;;;;24.21;67.22;100566.89;214983;1290;96712;-88
2023/09/17 17:11:27;;;;;;;9.60;5.40;;;;;;;24.02;68.21;100566.17;214340;1290;140924;-89
2023/09/17 17:16:27;;;;;;;11.90;5.80;;;;;;;23.80;69.38;100563.95;215283;1290;137952;-85
2023/09/17 17:21:27;;;;;;;11.20;5.90;;;;;;;23.53;70.58;100567.12;214577;1290;139453;-85
2023/09/17 17:26:28;;;;;;;12.90;5.10;;;;;;;23.28;71.93;100565.71;215059;1290;137908;-85
2023/09/17 17:31:28;;;;;;;11.80;6.40;;;;;;;23.07;72.63;100569.02;214829;1290;140296;-85
2023/09/17 17:36:29;;;;;;;8.80;5.70;;;;;;;22.79;73.84;100573.69;214558;1289;96596;-87
2023/09/17 17:41:33;;;;;;;11.40;6.20;;;;;;;22.55;74.91;100578.67;215147;1290;139360;-86
2023/09/17 17:46:34;;;;;;;10.10;5.50;;;;;;;22.35;75.81;100579.02;215525;1293;138747;-86
2023/09/17 17:51:35;;;;;;;10.30;5.30;;;;;;;22.13;76.85;100581.13;214823;1291;141689;-86
2023/09/17 17:56:35;;;;;;;11.00;6.30;;;;;;;21.93;77.28;100583.76;215250;1291;138574;-87
2023/09/17 18:01:37;;;;;;;9.10;5.40;;;;;;;21.73;78.23;100583.67;215554;1292;138851;-85
2023/09/17 18:06:37;;;;;;;12.80;6.80;;;;;;;21.64;78.83;100581.78;214966;1291;96675;-86
2023/09/17 18:11:38;;;;;;;10.40;5.80;;;;;;;21.47;79.18;100585.27;214786;1291;140180;-87
2023/09/17 18:16:38;;;;;;;13.70;5.10;;;;;;;21.29;80.18;100589.66;215326;1290;139951;-87
2023/09/17 18:21:40;;;;;;;8.90;5.50;;;;;;;21.12;80.68;100594.02;214691;1290;140722;-87
2023/09/17 18:26:40;;;;;;;12.30;5.20;;;;;;;20.93;81.67;100595.83;214761;1290;138600;-87
2023/09/17 18:31:40;;;;;;;10.70;5.10;;;;;;;20.74;82.22;100595.23;214595;1290;141158;-87
2023/09/17 18:36:41;;;;;;;10.60;4.90;;;;;;;20.61;82.61;100595.73;215512;1290;96786;-84
2023/09/17 18:41:43;;;;;;;11.50;5.60;;;;;;;20.48;83.14;100595.23;216721;1290;138947;-87
2023/09/17 18:46:44;;;;;;;9.70;5.50;;;;;;;20.31;83.92;100593.30;215827;1287;138698;-86
2023/09/17 18:51:45;;;;;;;9.20;5.40;;;;;;;20.18;84.02;100597.44;215147;1286;140535;-86
2023/09/17 18:56:46;;;;;;;9.70;5.40;;;;;;;20.08;84.40;100595.31;216167;1286;138758;-86
2023/09/17 19:01:46;;;;;;;11.00;6.00;;;;;;;19.94;85.02;100595.06;215858;1287;140754;-87
2023/09/17 19:06:47;;;;;;;9.30;5.30;;;;;;;19.81;85.72;100596.41;216345;1286;98068;-86
2023/09/17 19:11:47;;;;;;;10.60;5.20;;;;;;;19.65;86.36;100594.25;215436;1288;139971;-87
2023/09/17 19:16:48;;;;;;;9.40;5.10;;;;;;;19.53;86.48;100588.32;215727;1287;138535;-86
2023/09/17 19:21:48;;;;;;;12.20;5.90;;;;;;;19.46;86.57;100582.48;215246;1285;141257;-86
2023/09/17 19:26:48;;;;;;;11.50;6.00;;;;;;;19.36;87.57;100582.38;215525;1286;138462;-87
2023/09/17 19:31:49;;;;;;;9.70;5.50;;;;;;;19.23;88.03;100576.36;215213;1287;140056;-87
2023/09/17 19:36:49;;;;;;;12.20;6.20;;;;;;;19.14;88.46;100575.74;215717;1288;95419;-85
2023/09/17 19:41:50;;;;;;;9.20;5.60;;;;;;;19.03;89.01;100571.61;215320;1287;141789;-86
2023/09/17 19:46:53;;;;;;;10.00;5.90;;;;;;;18.95;88.88;100570.34;215466;1288;138152;-86
2023/09/17 19:51:53;;;;;;;8.90;4.70;;;;;;;18.88;89.60;100562.19;215075;1287;140540;-86
2023/09/17 19:56:54;;;;;;;8.00;5.40;;;;;;;18.78;89.87;100556.34;216879;1286;138852;-86
2023/09/17 20:01:55;;;;;;;10.60;6.10;;;;;;;18.68;90.39;100558.22;215169;1288;142589;-87
2023/09/17 20:06:55;;;;;;;10.50;5.80;;;;;;;18.58;90.95;100550.77;215650;1286;96556;-86
2023/09/17 20:11:56;;;;;;;9.20;5.70;;;;;;;18.50;91.17;100549.98;214939;1286;140740;-86
2023/09/17 20:16:56;;;;;;;10.00;5.90;;;;;;;18.42;91.30;100548.14;215630;1290;139264;-86
2023/09/17 20:21:57;;;;;;;8.10;4.90;;;;;;;18.36;91.56;100546.27;215277;1286;141776;-86
2023/09/17 20:26:57;;;;;;;10.60;6.50;;;;;;;18.29;91.35;100544.93;215481;1287;139511;-86
2023/09/17 20:31:58;;;;;;;8.60;5.40;;;;;;;18.26;91.12;100545.55;215235;1287;141691;-86
2023/09/17 20:36:59;;;;;;;9.70;5.50;;;;;;;18.22;91.06;100544.17;215595;1286;138445;-83
2023/09/17 20:42:00;;;;;;;8.00;5.00;;;;;;;18.19;91.58;100542.73;215188;1287;140445;-85
2023/09/17 20:47:00;;;;;;;10.10;5.20;;;;;;;18.13;91.97;100541.56;215810;1286;139123;-85
2023/09/17 20:52:01;;;;;;;9.30;5.40;;;;;;;18.07;92.17;100541.67;215417;1287;141373;-86
2023/09/17 20:57:01;;;;;;;9.10;5.50;;;;;;;18.01;91.97;100539.06;215696;1285;138772;-86
2023/09/17 21:02:02;;;;;;;9.20;5.20;;;;;;;17.97;91.57;100541.13;215293;1286;141240;-85
2023/09/17 21:07:03;;;;;;;9.80;5.90;;;;;;;17.95;92.39;100539.33;215842;1288;138401;-85
2023/09/17 21:12:04;;;;;;;11.90;5.90;;;;;;;17.91;91.78;100533.83;215166;1287;140235;-86
2023/09/17 21:17:04;;;;;;;12.40;7.30;;;;;;;17.89;92.12;100532.11;215570;1290;138710;-86
2023/09/17 21:22:05;;;;;;;14.00;7.60;;;;;;;17.87;91.93;100529.52;215010;1287;141416;-86
2023/09/17 21:27:06;;;;;;;11.70;6.70;;;;;;;17.87;92.21;100534.23;215660;1290;138905;-86
2023/09/17 21:32:06;;;;;;;11.00;7.00;;;;;;;17.85;93.05;100534.71;215033;1287;140929;-86
2023/09/17 21:37:06;;;;;;;11.30;7.20;;;;;;;17.83;93.59;100531.66;215254;1287;140588;-86
2023/09/17 21:42:07;;;;;;;12.80;8.60;;;;;;;17.80;93.34;100522.64;215295;1287;141310;-85
2023/09/17 21:47:07;;;;;;;13.20;6.70;;;;;;;17.78;93.63;100518.55;215545;1287;138525;-86
2023/09/17 21:52:08;;;;;;;10.00;7.10;;;;;;;17.75;93.79;100518.98;215102;1287;141596;-86
2023/09/17 21:57:19;;;;;;;12.10;7.40;;;;;;;17.74;93.91;100516.92;215688;1288;138469;-86
2023/09/17 22:02:19;;;;;;;15.80;8.70;;;;;;;17.71;94.13;100514.44;214731;1288;140814;-85
2023/09/17 22:07:20;;;;;;;12.60;8.10;;;;;;;17.70;93.97;100518.66;214304;1287;139137;-84
2023/09/17 22:12:20;;;;;;;14.00;8.40;;;;;;;17.69;94.38;100530.22;215068;1288;141010;-86
2023/09/17 22:17:20;;;;;;;11.40;7.00;;;;;;;17.67;94.24;100527.89;216185;1287;138458;-86
2023/09/17 22:22:21;;;;;;;13.30;7.80;;;;;;;17.65;94.83;100522.58;215664;1290;140054;-86
2023/09/17 22:27:21;;;;;;;16.50;9.10;;;;;;;17.62;94.17;100519.05;216170;1287;139155;-86
2023/09/17 22:32:21;;;;;;;16.30;9.20;;;;;;;17.59;94.82;100514.54;215406;1288;141274;-85
2023/09/17 22:37:22;;;;;;;15.70;9.60;;;;;;;17.57;95.06;100511.02;215830;1288;138953;-86